sensor_id;sensor_type;location;lat;lon;timestamp;P1;durP1;ratioP1;P2;durP2;ratioP2
16262;SDS011;8239;48.594;8.598;2023-10-08T00:02:15;6.13;;;2.97;;
16262;SDS011;8239;48.594;8.598;2023-10-08T00:04:47;4.50;;;3.00;;
16262;SDS011;8239;48.594;8.598;2023-10-08T00:07:16;5.33;;;3.00;;
16262;SDS011;8239;48.594;8.598;2023-10-08T00:09:46;7.13;;;3.10;;
16262;SDS011;8239;48.594;8.598;2023-10-08T00:12:15;6.30;;;3.40;;
16262;SDS011;8239;48.594;8.598;2023-10-08T00:14:44;5.83;;;3.10;;
16262;SDS011;8239;48.594;8.598;2023-10-08T00:17:14;6.07;;;3.20;;
16262;SDS011;8239;48.594;8.598;2023-10-08T00:19:42;7.57;;;3.53;;
16262;SDS011;8239;48.594;8.598;2023-10-08T00:22:09;5.67;;;3.70;;
16262;SDS011;8239;48.594;8.598;2023-10-08T00:24:38;9.90;;;3.80;;
16262;SDS011;8239;48.594;8.598;2023-10-08T00:27:07;5.97;;;2.60;;
16262;SDS011;8239;48.594;8.598;2023-10-08T00:29:34;5.47;;;3.00;;
16262;SDS011;8239;48.594;8.598;2023-10-08T00:32:06;4.27;;;2.40;;
16262;SDS011;8239;48.594;8.598;2023-10-08T00:34:40;6.40;;;2.10;;
16262;SDS011;8239;48.594;8.598;2023-10-08T00:37:08;5.00;;;2.23;;
16262;SDS011;8239;48.594;8.598;2023-10-08T00:39:39;5.67;;;2.20;;
16262;SDS011;8239;48.594;8.598;2023-10-08T00:42:06;5.50;;;2.33;;
16262;SDS011;8239;48.594;8.598;2023-10-08T00:44:33;6.13;;;2.20;;
16262;SDS011;8239;48.594;8.598;2023-10-08T00:47:07;5.40;;;2.40;;
16262;SDS011;8239;48.594;8.598;2023-10-08T00:49:36;4.30;;;2.10;;
16262;SDS011;8239;48.594;8.598;2023-10-08T00:52:13;6.73;;;2.60;;
16262;SDS011;8239;48.594;8.598;2023-10-08T00:54:55;4.10;;;2.00;;
16262;SDS011;8239;48.594;8.598;2023-10-08T00:57:36;7.53;;;2.20;;
16262;SDS011;8239;48.594;8.598;2023-10-08T01:00:08;5.10;;;2.40;;
16262;SDS011;8239;48.594;8.598;2023-10-08T01:02:44;8.40;;;2.33;;
16262;SDS011;8239;48.594;8.598;2023-10-08T01:05:14;7.23;;;2.47;;
16262;SDS011;8239;48.594;8.598;2023-10-08T01:07:44;6.10;;;2.40;;
16262;SDS011;8239;48.594;8.598;2023-10-08T01:10:14;3.50;;;2.20;;
16262;SDS011;8239;48.594;8.598;2023-10-08T01:12:45;5.20;;;2.10;;
16262;SDS011;8239;48.594;8.598;2023-10-08T01:15:21;4.87;;;2.27;;
16262;SDS011;8239;48.594;8.598;2023-10-08T01:17:55;5.27;;;2.60;;
16262;SDS011;8239;48.594;8.598;2023-10-08T01:20:26;6.80;;;2.43;;
16262;SDS011;8239;48.594;8.598;2023-10-08T01:23:01;4.77;;;2.33;;
16262;SDS011;8239;48.594;8.598;2023-10-08T01:25:32;5.93;;;2.50;;
16262;SDS011;8239;48.594;8.598;2023-10-08T01:28:00;6.30;;;2.50;;
16262;SDS011;8239;48.594;8.598;2023-10-08T01:30:33;6.23;;;2.30;;
16262;SDS011;8239;48.594;8.598;2023-10-08T01:33:06;7.07;;;2.57;;
16262;SDS011;8239;48.594;8.598;2023-10-08T01:35:36;4.63;;;2.33;;
16262;SDS011;8239;48.594;8.598;2023-10-08T01:38:05;4.50;;;2.10;;
16262;SDS011;8239;48.594;8.598;2023-10-08T01:40:38;5.20;;;2.40;;
16262;SDS011;8239;48.594;8.598;2023-10-08T01:43:06;4.17;;;1.93;;
16262;SDS011;8239;48.594;8.598;2023-10-08T01:45:35;6.20;;;2.50;;
16262;SDS011;8239;48.594;8.598;2023-10-08T01:48:07;4.83;;;2.23;;
16262;SDS011;8239;48.594;8.598;2023-10-08T01:50:36;5.67;;;2.10;;
16262;SDS011;8239;48.594;8.598;2023-10-08T01:53:04;4.80;;;2.27;;
16262;SDS011;8239;48.594;8.598;2023-10-08T01:55:35;7.18;;;2.47;;
16262;SDS011;8239;48.594;8.598;2023-10-08T01:58:14;4.20;;;2.20;;
16262;SDS011;8239;48.594;8.598;2023-10-08T02:00:42;5.07;;;2.47;;
16262;SDS011;8239;48.594;8.598;2023-10-08T02:03:11;6.20;;;2.43;;
16262;SDS011;8239;48.594;8.598;2023-10-08T02:05:40;6.97;;;2.47;;
16262;SDS011;8239;48.594;8.598;2023-10-08T02:08:10;6.00;;;2.07;;
16262;SDS011;8239;48.594;8.598;2023-10-08T02:10:38;8.20;;;2.83;;
16262;SDS011;8239;48.594;8.598;2023-10-08T02:13:06;5.20;;;2.37;;
16262;SDS011;8239;48.594;8.598;2023-10-08T02:15:34;6.20;;;2.10;;
16262;SDS011;8239;48.594;8.598;2023-10-08T02:18:04;6.97;;;2.17;;
16262;SDS011;8239;48.594;8.598;2023-10-08T02:20:31;4.67;;;2.27;;
16262;SDS011;8239;48.594;8.598;2023-10-08T02:22:59;8.33;;;2.20;;
16262;SDS011;8239;48.594;8.598;2023-10-08T02:25:27;7.33;;;2.27;;
16262;SDS011;8239;48.594;8.598;2023-10-08T02:27:54;4.43;;;2.30;;
16262;SDS011;8239;48.594;8.598;2023-10-08T02:30:22;6.57;;;1.97;;
16262;SDS011;8239;48.594;8.598;2023-10-08T02:32:49;7.70;;;2.00;;
16262;SDS011;8239;48.594;8.598;2023-10-08T02:35:16;5.93;;;2.30;;
16262;SDS011;8239;48.594;8.598;2023-10-08T02:37:43;6.25;;;2.28;;
16262;SDS011;8239;48.594;8.598;2023-10-08T02:40:11;10.68;;;2.20;;
16262;SDS011;8239;48.594;8.598;2023-10-08T02:42:47;7.20;;;2.07;;
16262;SDS011;8239;48.594;8.598;2023-10-08T02:45:14;7.65;;;2.50;;
16262;SDS011;8239;48.594;8.598;2023-10-08T02:47:41;3.67;;;1.83;;
16262;SDS011;8239;48.594;8.598;2023-10-08T02:50:10;5.60;;;2.00;;
16262;SDS011;8239;48.594;8.598;2023-10-08T02:52:42;3.63;;;2.00;;
16262;SDS011;8239;48.594;8.598;2023-10-08T02:55:11;5.55;;;2.20;;
16262;SDS011;8239;48.594;8.598;2023-10-08T02:57:50;5.97;;;2.13;;
16262;SDS011;8239;48.594;8.598;2023-10-08T03:00:17;6.88;;;2.47;;
16262;SDS011;8239;48.594;8.598;2023-10-08T03:02:45;4.47;;;1.90;;
16262;SDS011;8239;48.594;8.598;2023-10-08T03:05:12;6.80;;;2.57;;
16262;SDS011;8239;48.594;8.598;2023-10-08T03:07:42;5.90;;;2.22;;
16262;SDS011;8239;48.594;8.598;2023-10-08T03:10:09;5.28;;;2.20;;
16262;SDS011;8239;48.594;8.598;2023-10-08T03:12:46;6.90;;;2.08;;
16262;SDS011;8239;48.594;8.598;2023-10-08T03:15:16;7.17;;;2.27;;
16262;SDS011;8239;48.594;8.598;2023-10-08T03:17:54;5.50;;;2.30;;
16262;SDS011;8239;48.594;8.598;2023-10-08T03:20:22;8.97;;;2.30;;
16262;SDS011;8239;48.594;8.598;2023-10-08T03:23:03;6.33;;;2.30;;
16262;SDS011;8239;48.594;8.598;2023-10-08T03:25:37;6.83;;;2.57;;
16262;SDS011;8239;48.594;8.598;2023-10-08T03:28:06;4.73;;;2.03;;
16262;SDS011;8239;48.594;8.598;2023-10-08T03:30:39;5.67;;;2.53;;
16262;SDS011;8239;48.594;8.598;2023-10-08T03:33:16;6.77;;;2.17;;
16262;SDS011;8239;48.594;8.598;2023-10-08T03:35:49;4.90;;;2.40;;
16262;SDS011;8239;48.594;8.598;2023-10-08T03:38:18;5.93;;;2.00;;
16262;SDS011;8239;48.594;8.598;2023-10-08T03:40:53;7.50;;;2.27;;
16262;SDS011;8239;48.594;8.598;2023-10-08T03:43:26;5.30;;;2.10;;
16262;SDS011;8239;48.594;8.598;2023-10-08T03:46:09;4.67;;;2.50;;
16262;SDS011;8239;48.594;8.598;2023-10-08T03:48:41;4.67;;;2.20;;
16262;SDS011;8239;48.594;8.598;2023-10-08T03:51:10;4.67;;;2.37;;
16262;SDS011;8239;48.594;8.598;2023-10-08T03:53:37;4.93;;;2.27;;
16262;SDS011;8239;48.594;8.598;2023-10-08T03:56:23;7.37;;;2.60;;
16262;SDS011;8239;48.594;8.598;2023-10-08T03:58:50;6.93;;;2.30;;
16262;SDS011;8239;48.594;8.598;2023-10-08T04:01:21;7.70;;;2.43;;
16262;SDS011;8239;48.594;8.598;2023-10-08T04:03:49;10.20;;;2.90;;
16262;SDS011;8239;48.594;8.598;2023-10-08T04:06:24;7.87;;;2.37;;
16262;SDS011;8239;48.594;8.598;2023-10-08T04:09:03;7.63;;;2.70;;
16262;SDS011;8239;48.594;8.598;2023-10-08T04:11:47;8.02;;;2.67;;
16262;SDS011;8239;48.594;8.598;2023-10-08T04:14:21;7.93;;;2.42;;
16262;SDS011;8239;48.594;8.598;2023-10-08T04:16:51;7.57;;;2.75;;
16262;SDS011;8239;48.594;8.598;2023-10-08T04:19:18;7.87;;;2.50;;
16262;SDS011;8239;48.594;8.598;2023-10-08T04:21:50;8.75;;;2.45;;
16262;SDS011;8239;48.594;8.598;2023-10-08T04:24:20;7.03;;;2.40;;
16262;SDS011;8239;48.594;8.598;2023-10-08T04:26:53;5.68;;;2.35;;
16262;SDS011;8239;48.594;8.598;2023-10-08T04:29:22;7.50;;;2.63;;
16262;SDS011;8239;48.594;8.598;2023-10-08T04:31:51;7.50;;;2.27;;
16262;SDS011;8239;48.594;8.598;2023-10-08T04:34:32;4.55;;;2.20;;
16262;SDS011;8239;48.594;8.598;2023-10-08T04:37:00;6.35;;;2.25;;
16262;SDS011;8239;48.594;8.598;2023-10-08T04:39:28;8.57;;;2.60;;
16262;SDS011;8239;48.594;8.598;2023-10-08T04:41:58;6.43;;;2.55;;
16262;SDS011;8239;48.594;8.598;2023-10-08T04:44:31;6.90;;;2.67;;
16262;SDS011;8239;48.594;8.598;2023-10-08T04:47:00;10.23;;;2.65;;
16262;SDS011;8239;48.594;8.598;2023-10-08T04:49:31;7.88;;;2.38;;
16262;SDS011;8239;48.594;8.598;2023-10-08T04:51:59;7.82;;;2.42;;
16262;SDS011;8239;48.594;8.598;2023-10-08T04:54:30;9.10;;;2.72;;
16262;SDS011;8239;48.594;8.598;2023-10-08T04:56:58;10.38;;;2.80;;
16262;SDS011;8239;48.594;8.598;2023-10-08T04:59:26;8.68;;;2.80;;
16262;SDS011;8239;48.594;8.598;2023-10-08T05:02:00;7.32;;;2.38;;
16262;SDS011;8239;48.594;8.598;2023-10-08T05:04:46;6.75;;;2.63;;
16262;SDS011;8239;48.594;8.598;2023-10-08T05:07:43;6.15;;;2.60;;
16262;SDS011;8239;48.594;8.598;2023-10-08T05:10:36;6.00;;;2.30;;
16262;SDS011;8239;48.594;8.598;2023-10-08T05:13:26;5.05;;;2.47;;
16262;SDS011;8239;48.594;8.598;2023-10-08T05:15:58;8.50;;;2.53;;
16262;SDS011;8239;48.594;8.598;2023-10-08T05:18:56;4.88;;;2.28;;
16262;SDS011;8239;48.594;8.598;2023-10-08T05:21:50;9.52;;;2.47;;
16262;SDS011;8239;48.594;8.598;2023-10-08T05:24:27;5.75;;;2.25;;
16262;SDS011;8239;48.594;8.598;2023-10-08T05:27:03;6.72;;;2.72;;
16262;SDS011;8239;48.594;8.598;2023-10-08T05:30:02;9.32;;;2.60;;
16262;SDS011;8239;48.594;8.598;2023-10-08T05:32:41;6.78;;;2.70;;
16262;SDS011;8239;48.594;8.598;2023-10-08T05:35:32;6.35;;;2.28;;
16262;SDS011;8239;48.594;8.598;2023-10-08T05:38:20;7.13;;;2.80;;
16262;SDS011;8239;48.594;8.598;2023-10-08T05:41:13;6.95;;;2.38;;
16262;SDS011;8239;48.594;8.598;2023-10-08T05:43:53;7.57;;;2.53;;
16262;SDS011;8239;48.594;8.598;2023-10-08T05:46:37;5.70;;;2.93;;
16262;SDS011;8239;48.594;8.598;2023-10-08T05:49:16;7.20;;;2.42;;
16262;SDS011;8239;48.594;8.598;2023-10-08T05:52:04;7.40;;;2.30;;
16262;SDS011;8239;48.594;8.598;2023-10-08T05:54:50;4.93;;;2.67;;
16262;SDS011;8239;48.594;8.598;2023-10-08T05:57:34;5.68;;;2.78;;
16262;SDS011;8239;48.594;8.598;2023-10-08T06:00:12;6.43;;;2.53;;
16262;SDS011;8239;48.594;8.598;2023-10-08T06:02:57;5.77;;;2.70;;
16262;SDS011;8239;48.594;8.598;2023-10-08T06:05:35;6.53;;;2.70;;
16262;SDS011;8239;48.594;8.598;2023-10-08T06:08:13;6.77;;;2.60;;
16262;SDS011;8239;48.594;8.598;2023-10-08T06:10:46;6.77;;;2.87;;
16262;SDS011;8239;48.594;8.598;2023-10-08T06:13:21;6.53;;;2.80;;
16262;SDS011;8239;48.594;8.598;2023-10-08T06:16:09;4.97;;;2.53;;
16262;SDS011;8239;48.594;8.598;2023-10-08T06:18:38;7.73;;;2.40;;
16262;SDS011;8239;48.594;8.598;2023-10-08T06:21:06;4.47;;;2.50;;
16262;SDS011;8239;48.594;8.598;2023-10-08T06:23:35;6.47;;;2.27;;
16262;SDS011;8239;48.594;8.598;2023-10-08T06:26:04;6.50;;;2.50;;
16262;SDS011;8239;48.594;8.598;2023-10-08T06:28:40;5.33;;;2.67;;
16262;SDS011;8239;48.594;8.598;2023-10-08T06:31:09;5.73;;;2.40;;
16262;SDS011;8239;48.594;8.598;2023-10-08T06:33:41;7.37;;;2.60;;
16262;SDS011;8239;48.594;8.598;2023-10-08T06:36:09;6.30;;;2.67;;
16262;SDS011;8239;48.594;8.598;2023-10-08T06:38:42;6.60;;;2.80;;
16262;SDS011;8239;48.594;8.598;2023-10-08T06:41:13;5.38;;;2.40;;
16262;SDS011;8239;48.594;8.598;2023-10-08T06:43:43;6.25;;;2.80;;
16262;SDS011;8239;48.594;8.598;2023-10-08T06:46:12;5.78;;;2.90;;
16262;SDS011;8239;48.594;8.598;2023-10-08T06:48:39;6.05;;;2.80;;
16262;SDS011;8239;48.594;8.598;2023-10-08T06:51:07;5.05;;;2.80;;
16262;SDS011;8239;48.594;8.598;2023-10-08T06:53:38;6.10;;;3.17;;
16262;SDS011;8239;48.594;8.598;2023-10-08T06:56:06;4.65;;;3.00;;
16262;SDS011;8239;48.594;8.598;2023-10-08T06:58:36;5.45;;;2.78;;
16262;SDS011;8239;48.594;8.598;2023-10-08T07:01:03;5.10;;;2.85;;
16262;SDS011;8239;48.594;8.598;2023-10-08T07:03:33;5.55;;;3.05;;
16262;SDS011;8239;48.594;8.598;2023-10-08T07:06:03;5.47;;;3.13;;
16262;SDS011;8239;48.594;8.598;2023-10-08T07:08:42;5.93;;;2.42;;
16262;SDS011;8239;48.594;8.598;2023-10-08T07:11:13;5.13;;;2.90;;
16262;SDS011;8239;48.594;8.598;2023-10-08T07:13:43;6.32;;;3.00;;
16262;SDS011;8239;48.594;8.598;2023-10-08T07:16:10;6.80;;;2.88;;
16262;SDS011;8239;48.594;8.598;2023-10-08T07:18:37;6.43;;;2.72;;
16262;SDS011;8239;48.594;8.598;2023-10-08T07:21:04;5.57;;;2.97;;
16262;SDS011;8239;48.594;8.598;2023-10-08T07:23:37;9.68;;;3.67;;
16262;SDS011;8239;48.594;8.598;2023-10-08T07:26:22;5.82;;;3.40;;
16262;SDS011;8239;48.594;8.598;2023-10-08T07:28:50;5.13;;;3.17;;
16262;SDS011;8239;48.594;8.598;2023-10-08T07:31:18;6.13;;;4.15;;
16262;SDS011;8239;48.594;8.598;2023-10-08T07:33:48;7.82;;;4.80;;
16262;SDS011;8239;48.594;8.598;2023-10-08T07:36:21;9.05;;;3.97;;
16262;SDS011;8239;48.594;8.598;2023-10-08T07:38:48;6.60;;;3.45;;
16262;SDS011;8239;48.594;8.598;2023-10-08T07:41:15;7.18;;;3.65;;
16262;SDS011;8239;48.594;8.598;2023-10-08T07:43:46;6.90;;;4.47;;
16262;SDS011;8239;48.594;8.598;2023-10-08T07:46:20;11.73;;;7.82;;
16262;SDS011;8239;48.594;8.598;2023-10-08T07:48:47;8.68;;;6.13;;
16262;SDS011;8239;48.594;8.598;2023-10-08T07:51:15;9.18;;;4.30;;
16262;SDS011;8239;48.594;8.598;2023-10-08T07:53:47;6.72;;;3.88;;
16262;SDS011;8239;48.594;8.598;2023-10-08T07:56:14;6.97;;;3.95;;
16262;SDS011;8239;48.594;8.598;2023-10-08T07:58:43;7.05;;;4.00;;
16262;SDS011;8239;48.594;8.598;2023-10-08T08:01:11;9.07;;;4.20;;
16262;SDS011;8239;48.594;8.598;2023-10-08T08:03:39;6.07;;;5.40;;
16262;SDS011;8239;48.594;8.598;2023-10-08T08:06:07;4.93;;;4.05;;
16262;SDS011;8239;48.594;8.598;2023-10-08T08:08:35;8.88;;;4.00;;
16262;SDS011;8239;48.594;8.598;2023-10-08T08:11:04;5.20;;;3.70;;
16262;SDS011;8239;48.594;8.598;2023-10-08T08:13:33;7.40;;;4.10;;
16262;SDS011;8239;48.594;8.598;2023-10-08T08:16:00;7.78;;;4.47;;
16262;SDS011;8239;48.594;8.598;2023-10-08T08:18:43;7.82;;;4.30;;
16262;SDS011;8239;48.594;8.598;2023-10-08T08:21:10;5.53;;;4.82;;
16262;SDS011;8239;48.594;8.598;2023-10-08T08:23:40;5.75;;;4.45;;
16262;SDS011;8239;48.594;8.598;2023-10-08T08:26:12;6.45;;;4.45;;
16262;SDS011;8239;48.594;8.598;2023-10-08T08:28:51;7.63;;;4.50;;
16262;SDS011;8239;48.594;8.598;2023-10-08T08:31:20;7.28;;;4.47;;
16262;SDS011;8239;48.594;8.598;2023-10-08T08:33:49;9.32;;;4.38;;
16262;SDS011;8239;48.594;8.598;2023-10-08T08:36:21;4.90;;;4.00;;
16262;SDS011;8239;48.594;8.598;2023-10-08T08:38:49;5.90;;;4.55;;
16262;SDS011;8239;48.594;8.598;2023-10-08T08:41:16;7.82;;;4.18;;
16262;SDS011;8239;48.594;8.598;2023-10-08T08:43:47;6.68;;;4.40;;
16262;SDS011;8239;48.594;8.598;2023-10-08T08:46:14;8.32;;;4.40;;
16262;SDS011;8239;48.594;8.598;2023-10-08T08:48:42;8.95;;;4.32;;
16262;SDS011;8239;48.594;8.598;2023-10-08T08:51:12;8.05;;;4.30;;
16262;SDS011;8239;48.594;8.598;2023-10-08T08:53:39;8.93;;;4.93;;
16262;SDS011;8239;48.594;8.598;2023-10-08T08:56:07;9.82;;;4.32;;
16262;SDS011;8239;48.594;8.598;2023-10-08T08:58:35;6.30;;;4.20;;
16262;SDS011;8239;48.594;8.598;2023-10-08T09:01:06;6.70;;;4.20;;
16262;SDS011;8239;48.594;8.598;2023-10-08T09:03:37;8.07;;;4.28;;
16262;SDS011;8239;48.594;8.598;2023-10-08T09:06:05;6.70;;;3.38;;
16262;SDS011;8239;48.594;8.598;2023-10-08T09:08:34;7.30;;;4.18;;
16262;SDS011;8239;48.594;8.598;2023-10-08T09:11:02;10.25;;;4.35;;
16262;SDS011;8239;48.594;8.598;2023-10-08T09:13:31;10.50;;;4.18;;
16262;SDS011;8239;48.594;8.598;2023-10-08T09:16:03;11.55;;;4.20;;
16262;SDS011;8239;48.594;8.598;2023-10-08T09:18:33;8.32;;;4.50;;
16262;SDS011;8239;48.594;8.598;2023-10-08T09:21:07;10.13;;;4.45;;
16262;SDS011;8239;48.594;8.598;2023-10-08T09:23:42;10.80;;;4.18;;
16262;SDS011;8239;48.594;8.598;2023-10-08T09:26:12;10.73;;;4.22;;
16262;SDS011;8239;48.594;8.598;2023-10-08T09:28:40;10.20;;;4.10;;
16262;SDS011;8239;48.594;8.598;2023-10-08T09:31:11;9.10;;;4.15;;
16262;SDS011;8239;48.594;8.598;2023-10-08T09:33:39;9.38;;;4.10;;
16262;SDS011;8239;48.594;8.598;2023-10-08T09:36:06;12.35;;;4.47;;
16262;SDS011;8239;48.594;8.598;2023-10-08T09:38:36;10.20;;;4.10;;
16262;SDS011;8239;48.594;8.598;2023-10-08T09:41:05;8.43;;;4.28;;
16262;SDS011;8239;48.594;8.598;2023-10-08T09:43:33;11.75;;;4.68;;
16262;SDS011;8239;48.594;8.598;2023-10-08T09:46:03;11.93;;;4.15;;
16262;SDS011;8239;48.594;8.598;2023-10-08T09:48:37;8.52;;;4.00;;
16262;SDS011;8239;48.594;8.598;2023-10-08T09:51:09;9.20;;;3.80;;
16262;SDS011;8239;48.594;8.598;2023-10-08T09:53:40;10.50;;;4.30;;
16262;SDS011;8239;48.594;8.598;2023-10-08T09:56:14;9.45;;;4.22;;
16262;SDS011;8239;48.594;8.598;2023-10-08T09:58:43;10.05;;;3.97;;
16262;SDS011;8239;48.594;8.598;2023-10-08T10:01:11;9.05;;;3.97;;
16262;SDS011;8239;48.594;8.598;2023-10-08T10:03:38;9.10;;;4.20;;
16262;SDS011;8239;48.594;8.598;2023-10-08T10:06:11;10.88;;;4.20;;
16262;SDS011;8239;48.594;8.598;2023-10-08T10:08:40;8.70;;;4.00;;
16262;SDS011;8239;48.594;8.598;2023-10-08T10:11:09;8.40;;;3.80;;
16262;SDS011;8239;48.594;8.598;2023-10-08T10:13:41;10.38;;;4.25;;
16262;SDS011;8239;48.594;8.598;2023-10-08T10:16:10;10.63;;;4.10;;
16262;SDS011;8239;48.594;8.598;2023-10-08T10:18:38;10.18;;;3.83;;
16262;SDS011;8239;48.594;8.598;2023-10-08T10:21:24;11.50;;;4.28;;
16262;SDS011;8239;48.594;8.598;2023-10-08T10:23:54;10.57;;;4.30;;
16262;SDS011;8239;48.594;8.598;2023-10-08T10:26:22;12.90;;;4.70;;
16262;SDS011;8239;48.594;8.598;2023-10-08T10:31:52;12.27;;;4.43;;
16262;SDS011;8239;48.594;8.598;2023-10-08T10:34:22;13.40;;;4.80;;
16262;SDS011;8239;48.594;8.598;2023-10-08T10:36:52;10.95;;;4.30;;
16262;SDS011;8239;48.594;8.598;2023-10-08T10:39:27;15.60;;;4.43;;
16262;SDS011;8239;48.594;8.598;2023-10-08T10:41:57;11.85;;;4.40;;
16262;SDS011;8239;48.594;8.598;2023-10-08T10:44:28;12.27;;;4.32;;
16262;SDS011;8239;48.594;8.598;2023-10-08T10:46:56;10.48;;;3.90;;
16262;SDS011;8239;48.594;8.598;2023-10-08T10:49:41;11.45;;;4.43;;
16262;SDS011;8239;48.594;8.598;2023-10-08T10:52:18;13.68;;;4.40;;
16262;SDS011;8239;48.594;8.598;2023-10-08T10:54:57;11.13;;;4.10;;
16262;SDS011;8239;48.594;8.598;2023-10-08T10:57:43;12.25;;;4.20;;
16262;SDS011;8239;48.594;8.598;2023-10-08T11:00:20;15.05;;;4.10;;
16262;SDS011;8239;48.594;8.598;2023-10-08T11:03:06;11.63;;;3.83;;
16262;SDS011;8239;48.594;8.598;2023-10-08T11:05:41;11.85;;;3.95;;
16262;SDS011;8239;48.594;8.598;2023-10-08T11:08:13;15.13;;;4.13;;
16262;SDS011;8239;48.594;8.598;2023-10-08T11:10:43;11.32;;;3.70;;
16262;SDS011;8239;48.594;8.598;2023-10-08T11:13:14;13.02;;;3.97;;
16262;SDS011;8239;48.594;8.598;2023-10-08T11:15:44;16.20;;;4.30;;
16262;SDS011;8239;48.594;8.598;2023-10-08T11:18:15;13.25;;;3.78;;
16262;SDS011;8239;48.594;8.598;2023-10-08T11:20:43;14.50;;;4.10;;
16262;SDS011;8239;48.594;8.598;2023-10-08T11:23:10;13.65;;;3.65;;
16262;SDS011;8239;48.594;8.598;2023-10-08T11:25:53;12.68;;;4.00;;
16262;SDS011;8239;48.594;8.598;2023-10-08T11:28:25;10.90;;;4.03;;
16262;SDS011;8239;48.594;8.598;2023-10-08T11:30:55;10.57;;;4.13;;
16262;SDS011;8239;48.594;8.598;2023-10-08T11:33:24;13.48;;;4.35;;
16262;SDS011;8239;48.594;8.598;2023-10-08T11:35:58;13.50;;;4.10;;
16262;SDS011;8239;48.594;8.598;2023-10-08T11:38:27;13.35;;;3.88;;
16262;SDS011;8239;48.594;8.598;2023-10-08T11:41:10;11.50;;;4.20;;
16262;SDS011;8239;48.594;8.598;2023-10-08T11:43:46;12.38;;;3.80;;
16262;SDS011;8239;48.594;8.598;2023-10-08T11:46:21;13.32;;;4.15;;
16262;SDS011;8239;48.594;8.598;2023-10-08T11:48:50;10.15;;;3.95;;
16262;SDS011;8239;48.594;8.598;2023-10-08T11:51:17;11.35;;;4.38;;
16262;SDS011;8239;48.594;8.598;2023-10-08T11:53:49;14.50;;;4.20;;
16262;SDS011;8239;48.594;8.598;2023-10-08T11:56:16;13.68;;;4.60;;
16262;SDS011;8239;48.594;8.598;2023-10-08T11:58:47;12.35;;;4.40;;
16262;SDS011;8239;48.594;8.598;2023-10-08T12:01:14;13.80;;;4.53;;
16262;SDS011;8239;48.594;8.598;2023-10-08T12:03:44;11.05;;;3.97;;
16262;SDS011;8239;48.594;8.598;2023-10-08T12:06:12;14.82;;;3.85;;
16262;SDS011;8239;48.594;8.598;2023-10-08T12:08:43;14.65;;;4.50;;
16262;SDS011;8239;48.594;8.598;2023-10-08T12:11:14;14.18;;;4.03;;
16262;SDS011;8239;48.594;8.598;2023-10-08T12:13:42;11.15;;;3.75;;
16262;SDS011;8239;48.594;8.598;2023-10-08T12:16:13;11.70;;;3.75;;
16262;SDS011;8239;48.594;8.598;2023-10-08T12:18:47;13.70;;;4.43;;
16262;SDS011;8239;48.594;8.598;2023-10-08T12:21:18;12.35;;;4.43;;
16262;SDS011;8239;48.594;8.598;2023-10-08T12:23:46;13.90;;;4.55;;
16262;SDS011;8239;48.594;8.598;2023-10-08T12:26:15;14.10;;;4.40;;
16262;SDS011;8239;48.594;8.598;2023-10-08T12:28:44;15.00;;;3.95;;
16262;SDS011;8239;48.594;8.598;2023-10-08T12:31:13;12.63;;;3.83;;
16262;SDS011;8239;48.594;8.598;2023-10-08T12:33:41;17.55;;;4.53;;
16262;SDS011;8239;48.594;8.598;2023-10-08T12:36:11;15.45;;;4.20;;
16262;SDS011;8239;48.594;8.598;2023-10-08T12:38:39;15.63;;;4.40;;
16262;SDS011;8239;48.594;8.598;2023-10-08T12:41:07;11.30;;;3.80;;
16262;SDS011;8239;48.594;8.598;2023-10-08T12:43:38;8.18;;;3.63;;
16262;SDS011;8239;48.594;8.598;2023-10-08T12:46:07;18.40;;;4.35;;
16262;SDS011;8239;48.594;8.598;2023-10-08T12:48:41;14.65;;;4.68;;
16262;SDS011;8239;48.594;8.598;2023-10-08T12:51:13;13.63;;;4.70;;
16262;SDS011;8239;48.594;8.598;2023-10-08T12:53:41;16.13;;;4.30;;
16262;SDS011;8239;48.594;8.598;2023-10-08T12:56:15;12.52;;;4.18;;
16262;SDS011;8239;48.594;8.598;2023-10-08T12:58:46;19.95;;;4.32;;
16262;SDS011;8239;48.594;8.598;2023-10-08T13:01:14;15.75;;;4.15;;
16262;SDS011;8239;48.594;8.598;2023-10-08T13:03:42;13.63;;;4.13;;
16262;SDS011;8239;48.594;8.598;2023-10-08T13:06:14;13.60;;;4.78;;
16262;SDS011;8239;48.594;8.598;2023-10-08T13:10:13;13.40;;;4.30;;
16262;SDS011;8239;48.594;8.598;2023-10-08T13:12:08;22.33;;;8.02;;
16262;SDS011;8239;48.594;8.598;2023-10-08T13:14:35;15.05;;;4.82;;
16262;SDS011;8239;48.594;8.598;2023-10-08T13:17:02;18.55;;;4.70;;
16262;SDS011;8239;48.594;8.598;2023-10-08T13:19:29;15.80;;;5.00;;
16262;SDS011;8239;48.594;8.598;2023-10-08T13:22:00;15.57;;;4.97;;
16262;SDS011;8239;48.594;8.598;2023-10-08T13:24:31;16.95;;;5.28;;
16262;SDS011;8239;48.594;8.598;2023-10-08T13:27:00;17.55;;;5.00;;
16262;SDS011;8239;48.594;8.598;2023-10-08T13:29:27;15.80;;;4.60;;
16262;SDS011;8239;48.594;8.598;2023-10-08T13:31:58;13.07;;;4.80;;
16262;SDS011;8239;48.594;8.598;2023-10-08T13:34:25;14.93;;;5.55;;
16262;SDS011;8239;48.594;8.598;2023-10-08T13:36:52;15.45;;;5.07;;
16262;SDS011;8239;48.594;8.598;2023-10-08T13:39:22;15.02;;;5.53;;
16262;SDS011;8239;48.594;8.598;2023-10-08T13:41:49;15.25;;;5.20;;
16262;SDS011;8239;48.594;8.598;2023-10-08T13:44:17;13.57;;;5.18;;
16262;SDS011;8239;48.594;8.598;2023-10-08T13:46:53;17.20;;;5.35;;
16262;SDS011;8239;48.594;8.598;2023-10-08T13:49:23;12.73;;;4.72;;
16262;SDS011;8239;48.594;8.598;2023-10-08T13:51:51;12.40;;;5.00;;
16262;SDS011;8239;48.594;8.598;2023-10-08T13:54:23;18.08;;;5.13;;
16262;SDS011;8239;48.594;8.598;2023-10-08T13:56:54;18.63;;;5.68;;
16262;SDS011;8239;48.594;8.598;2023-10-08T13:59:21;11.68;;;5.15;;
16262;SDS011;8239;48.594;8.598;2023-10-08T14:01:49;14.65;;;4.90;;
16262;SDS011;8239;48.594;8.598;2023-10-08T14:04:17;18.25;;;5.43;;
16262;SDS011;8239;48.594;8.598;2023-10-08T14:06:45;10.88;;;4.60;;
16262;SDS011;8239;48.594;8.598;2023-10-08T14:09:17;12.82;;;5.10;;
16262;SDS011;8239;48.594;8.598;2023-10-08T14:11:48;12.57;;;4.57;;
16262;SDS011;8239;48.594;8.598;2023-10-08T14:14:17;16.80;;;5.13;;
16262;SDS011;8239;48.594;8.598;2023-10-08T14:16:45;15.55;;;5.10;;
16262;SDS011;8239;48.594;8.598;2023-10-08T14:19:17;14.05;;;4.88;;
16262;SDS011;8239;48.594;8.598;2023-10-08T14:21:48;15.15;;;5.22;;
16262;SDS011;8239;48.594;8.598;2023-10-08T14:24:19;15.90;;;5.00;;
16262;SDS011;8239;48.594;8.598;2023-10-08T14:26:50;17.00;;;5.20;;
16262;SDS011;8239;48.594;8.598;2023-10-08T14:29:19;13.50;;;5.00;;
16262;SDS011;8239;48.594;8.598;2023-10-08T14:31:49;14.10;;;4.88;;
16262;SDS011;8239;48.594;8.598;2023-10-08T14:34:18;13.80;;;5.10;;
16262;SDS011;8239;48.594;8.598;2023-10-08T14:37:07;14.88;;;4.78;;
16262;SDS011;8239;48.594;8.598;2023-10-08T14:39:52;13.88;;;5.20;;
16262;SDS011;8239;48.594;8.598;2023-10-08T14:42:37;14.65;;;4.80;;
16262;SDS011;8239;48.594;8.598;2023-10-08T14:45:21;16.30;;;4.97;;
16262;SDS011;8239;48.594;8.598;2023-10-08T14:47:51;17.58;;;4.93;;
16262;SDS011;8239;48.594;8.598;2023-10-08T14:50:20;14.52;;;4.78;;
16262;SDS011;8239;48.594;8.598;2023-10-08T14:52:47;19.00;;;5.53;;
16262;SDS011;8239;48.594;8.598;2023-10-08T14:55:14;12.15;;;5.47;;
16262;SDS011;8239;48.594;8.598;2023-10-08T14:57:43;16.70;;;5.13;;
16262;SDS011;8239;48.594;8.598;2023-10-08T15:00:10;14.65;;;5.15;;
16262;SDS011;8239;48.594;8.598;2023-10-08T15:02:37;13.95;;;5.45;;
16262;SDS011;8239;48.594;8.598;2023-10-08T15:05:05;15.95;;;5.55;;
16262;SDS011;8239;48.594;8.598;2023-10-08T15:07:32;17.27;;;5.20;;
16262;SDS011;8239;48.594;8.598;2023-10-08T15:09:59;15.43;;;5.18;;
16262;SDS011;8239;48.594;8.598;2023-10-08T15:12:26;13.43;;;5.15;;
16262;SDS011;8239;48.594;8.598;2023-10-08T15:14:55;13.98;;;5.07;;
16262;SDS011;8239;48.594;8.598;2023-10-08T15:17:22;13.60;;;4.72;;
16262;SDS011;8239;48.594;8.598;2023-10-08T15:19:49;16.92;;;5.30;;
16262;SDS011;8239;48.594;8.598;2023-10-08T15:22:20;16.27;;;5.07;;
16262;SDS011;8239;48.594;8.598;2023-10-08T15:24:47;12.68;;;4.82;;
16262;SDS011;8239;48.594;8.598;2023-10-08T15:27:14;12.07;;;4.90;;